sensor_id;sensor_type;location;lat;lon;timestamp;temperature;humidity
68924;DHT22;55961;52.156;20.942;2023-04-03T00:00:53;2.60;62.90
68924;DHT22;55961;52.156;20.942;2023-04-03T00:03:19;2.60;63.20
68924;DHT22;55961;52.156;20.942;2023-04-03T00:05:46;2.60;63.30
68924;DHT22;55961;52.156;20.942;2023-04-03T00:08:12;2.50;63.40
68924;DHT22;55961;52.156;20.942;2023-04-03T00:10:38;2.50;62.70
68924;DHT22;55961;52.156;20.942;2023-04-03T00:13:05;2.50;61.90
68924;DHT22;55961;52.156;20.942;2023-04-03T00:15:32;2.40;62.10
68924;DHT22;55961;52.156;20.942;2023-04-03T00:17:58;2.40;62.40
68924;DHT22;55961;52.156;20.942;2023-04-03T00:20:24;2.30;63.00
68924;DHT22;55961;52.156;20.942;2023-04-03T00:22:50;2.20;63.30
68924;DHT22;55961;52.156;20.942;2023-04-03T00:25:16;2.20;63.30
68924;DHT22;55961;52.156;20.942;2023-04-03T00:27:42;2.20;62.70
68924;DHT22;55961;52.156;20.942;2023-04-03T00:30:10;2.10;62.90
68924;DHT22;55961;52.156;20.942;2023-04-03T00:32:36;2.10;62.50
68924;DHT22;55961;52.156;20.942;2023-04-03T00:35:03;2.10;62.90
68924;DHT22;55961;52.156;20.942;2023-04-03T00:37:29;2.00;62.30
68924;DHT22;55961;52.156;20.942;2023-04-03T00:39:55;2.00;62.60
68924;DHT22;55961;52.156;20.942;2023-04-03T00:42:21;1.90;63.10
68924;DHT22;55961;52.156;20.942;2023-04-03T00:47:16;1.90;63.20
68924;DHT22;55961;52.156;20.942;2023-04-03T00:49:42;1.80;63.10
68924;DHT22;55961;52.156;20.942;2023-04-03T00:52:14;1.80;62.90
68924;DHT22;55961;52.156;20.942;2023-04-03T00:54:42;1.70;62.80
68924;DHT22;55961;52.156;20.942;2023-04-03T00:57:10;1.70;63.10
68924;DHT22;55961;52.156;20.942;2023-04-03T00:59:39;1.70;63.00
68924;DHT22;55961;52.156;20.942;2023-04-03T01:02:07;1.60;63.10
68924;DHT22;55961;52.156;20.942;2023-04-03T01:04:38;1.60;63.30
68924;DHT22;55961;52.156;20.942;2023-04-03T01:07:27;1.50;62.90
68924;DHT22;55961;52.156;20.942;2023-04-03T01:09:57;1.50;62.70
68924;DHT22;55961;52.156;20.942;2023-04-03T01:12:28;1.50;62.40
68924;DHT22;55961;52.156;20.942;2023-04-03T01:14:56;1.40;62.20
68924;DHT22;55961;52.156;20.942;2023-04-03T01:17:47;1.40;62.50
68924;DHT22;55961;52.156;20.942;2023-04-03T01:25:46;1.30;62.40
68924;DHT22;55961;52.156;20.942;2023-04-03T01:28:24;1.30;62.90
68924;DHT22;55961;52.156;20.942;2023-04-03T01:33:29;1.20;62.70
68924;DHT22;55961;52.156;20.942;2023-04-03T01:35:55;1.20;62.80
68924;DHT22;55961;52.156;20.942;2023-04-03T01:38:21;1.10;63.10
68924;DHT22;55961;52.156;20.942;2023-04-03T01:40:47;1.10;63.20
68924;DHT22;55961;52.156;20.942;2023-04-03T01:43:13;1.10;63.30
68924;DHT22;55961;52.156;20.942;2023-04-03T01:45:39;1.10;63.30
68924;DHT22;55961;52.156;20.942;2023-04-03T01:48:05;1.00;63.50
68924;DHT22;55961;52.156;20.942;2023-04-03T01:50:31;1.00;63.30
68924;DHT22;55961;52.156;20.942;2023-04-03T01:52:57;0.90;63.30
68924;DHT22;55961;52.156;20.942;2023-04-03T01:55:23;0.90;63.40
68924;DHT22;55961;52.156;20.942;2023-04-03T01:57:49;0.90;63.50
68924;DHT22;55961;52.156;20.942;2023-04-03T02:00:15;0.80;63.60
68924;DHT22;55961;52.156;20.942;2023-04-03T02:02:41;0.80;63.60
68924;DHT22;55961;52.156;20.942;2023-04-03T02:05:07;0.80;63.80
68924;DHT22;55961;52.156;20.942;2023-04-03T02:07:33;0.70;63.70
68924;DHT22;55961;52.156;20.942;2023-04-03T02:09:59;0.70;63.60
68924;DHT22;55961;52.156;20.942;2023-04-03T02:12:25;0.70;63.80
68924;DHT22;55961;52.156;20.942;2023-04-03T02:14:51;0.70;64.00
68924;DHT22;55961;52.156;20.942;2023-04-03T02:17:17;0.60;63.90
68924;DHT22;55961;52.156;20.942;2023-04-03T02:19:43;0.60;64.10
68924;DHT22;55961;52.156;20.942;2023-04-03T02:22:09;0.60;64.30
68924;DHT22;55961;52.156;20.942;2023-04-03T02:24:34;0.50;64.30
68924;DHT22;55961;52.156;20.942;2023-04-03T02:27:00;0.50;64.20
68924;DHT22;55961;52.156;20.942;2023-04-03T02:29:26;0.50;64.60
68924;DHT22;55961;52.156;20.942;2023-04-03T02:31:52;0.50;64.70
68924;DHT22;55961;52.156;20.942;2023-04-03T02:34:18;0.40;64.40
68924;DHT22;55961;52.156;20.942;2023-04-03T02:36:44;0.40;64.60
68924;DHT22;55961;52.156;20.942;2023-04-03T02:39:10;0.40;64.50
68924;DHT22;55961;52.156;20.942;2023-04-03T02:41:37;0.40;64.60
68924;DHT22;55961;52.156;20.942;2023-04-03T02:44:04;0.30;64.20
68924;DHT22;55961;52.156;20.942;2023-04-03T02:46:31;0.30;64.40
68924;DHT22;55961;52.156;20.942;2023-04-03T02:48:57;0.30;64.80
68924;DHT22;55961;52.156;20.942;2023-04-03T02:51:23;0.30;65.20
68924;DHT22;55961;52.156;20.942;2023-04-03T02:53:49;0.20;65.20
68924;DHT22;55961;52.156;20.942;2023-04-03T02:56:16;0.20;64.80
68924;DHT22;55961;52.156;20.942;2023-04-03T02:58:43;0.20;64.90
68924;DHT22;55961;52.156;20.942;2023-04-03T03:01:09;0.20;65.00
68924;DHT22;55961;52.156;20.942;2023-04-03T03:03:34;0.10;65.20
68924;DHT22;55961;52.156;20.942;2023-04-03T03:06:05;0.10;65.20
68924;DHT22;55961;52.156;20.942;2023-04-03T03:08:32;0.10;65.60
68924;DHT22;55961;52.156;20.942;2023-04-03T03:10:58;0.10;65.70
68924;DHT22;55961;52.156;20.942;2023-04-03T03:13:24;0.00;65.90
68924;DHT22;55961;52.156;20.942;2023-04-03T03:15:51;0.00;65.80
68924;DHT22;55961;52.156;20.942;2023-04-03T03:18:17;0.00;65.60
68924;DHT22;55961;52.156;20.942;2023-04-03T03:20:43;0.00;65.70
68924;DHT22;55961;52.156;20.942;2023-04-03T03:23:10;0.00;65.70
68924;DHT22;55961;52.156;20.942;2023-04-03T03:25:40;-0.10;65.80
68924;DHT22;55961;52.156;20.942;2023-04-03T03:28:06;-0.10;66.10
68924;DHT22;55961;52.156;20.942;2023-04-03T03:30:33;-0.10;66.20
68924;DHT22;55961;52.156;20.942;2023-04-03T03:32:58;-0.20;66.30
68924;DHT22;55961;52.156;20.942;2023-04-03T03:35:25;-0.20;66.40
68924;DHT22;55961;52.156;20.942;2023-04-03T03:37:51;-0.20;66.40
68924;DHT22;55961;52.156;20.942;2023-04-03T03:40:17;-0.20;66.30
68924;DHT22;55961;52.156;20.942;2023-04-03T03:42:42;-0.30;66.50
68924;DHT22;55961;52.156;20.942;2023-04-03T03:45:09;-0.30;66.80
68924;DHT22;55961;52.156;20.942;2023-04-03T03:47:35;-0.30;66.80
68924;DHT22;55961;52.156;20.942;2023-04-03T03:50:02;-0.30;66.80
68924;DHT22;55961;52.156;20.942;2023-04-03T03:52:28;-0.40;67.00
68924;DHT22;55961;52.156;20.942;2023-04-03T03:54:55;-0.40;67.10
68924;DHT22;55961;52.156;20.942;2023-04-03T03:57:22;-0.40;67.10
68924;DHT22;55961;52.156;20.942;2023-04-03T03:59:48;-0.40;67.10
68924;DHT22;55961;52.156;20.942;2023-04-03T04:02:15;-0.40;67.20
68924;DHT22;55961;52.156;20.942;2023-04-03T04:04:42;-0.50;67.30
68924;DHT22;55961;52.156;20.942;2023-04-03T04:07:07;-0.50;67.30
68924;DHT22;55961;52.156;20.942;2023-04-03T04:09:33;-0.50;67.40
68924;DHT22;55961;52.156;20.942;2023-04-03T04:11:59;-0.50;67.40
68924;DHT22;55961;52.156;20.942;2023-04-03T04:14:25;-0.60;67.50
68924;DHT22;55961;52.156;20.942;2023-04-03T04:16:52;-0.60;67.40
68924;DHT22;55961;52.156;20.942;2023-04-03T04:19:18;-0.60;67.60
68924;DHT22;55961;52.156;20.942;2023-04-03T04:21:43;-0.60;67.50
68924;DHT22;55961;52.156;20.942;2023-04-03T04:24:10;-0.60;67.50
68924;DHT22;55961;52.156;20.942;2023-04-03T04:26:35;-0.60;67.50
68924;DHT22;55961;52.156;20.942;2023-04-03T04:29:01;-0.60;67.90
68924;DHT22;55961;52.156;20.942;2023-04-03T04:31:27;-0.60;67.80
68924;DHT22;55961;52.156;20.942;2023-04-03T04:33:53;-0.70;67.70
68924;DHT22;55961;52.156;20.942;2023-04-03T04:36:19;-0.70;67.70
68924;DHT22;55961;52.156;20.942;2023-04-03T04:38:46;-0.70;67.70
68924;DHT22;55961;52.156;20.942;2023-04-03T04:41:12;-0.70;67.80
68924;DHT22;55961;52.156;20.942;2023-04-03T04:43:38;-0.70;67.80
68924;DHT22;55961;52.156;20.942;2023-04-03T04:46:08;-0.70;67.90
68924;DHT22;55961;52.156;20.942;2023-04-03T04:48:35;-0.70;67.90
68924;DHT22;55961;52.156;20.942;2023-04-03T04:51:01;-0.70;68.10
68924;DHT22;55961;52.156;20.942;2023-04-03T04:53:27;-0.70;68.40
68924;DHT22;55961;52.156;20.942;2023-04-03T04:55:53;-0.70;68.30
68924;DHT22;55961;52.156;20.942;2023-04-03T04:58:19;-0.70;68.40
68924;DHT22;55961;52.156;20.942;2023-04-03T05:00:45;-0.70;68.20
68924;DHT22;55961;52.156;20.942;2023-04-03T05:03:12;-0.70;68.30
68924;DHT22;55961;52.156;20.942;2023-04-03T05:05:37;-0.70;68.30
68924;DHT22;55961;52.156;20.942;2023-04-03T05:08:04;-0.70;68.30
68924;DHT22;55961;52.156;20.942;2023-04-03T05:10:30;-0.70;68.70
68924;DHT22;55961;52.156;20.942;2023-04-03T05:12:57;-0.70;68.70
68924;DHT22;55961;52.156;20.942;2023-04-03T05:15:23;-0.60;68.70
68924;DHT22;55961;52.156;20.942;2023-04-03T05:17:49;-0.60;68.50
68924;DHT22;55961;52.156;20.942;2023-04-03T05:20:17;-0.60;68.40
68924;DHT22;55961;52.156;20.942;2023-04-03T05:22:43;-0.50;68.20
68924;DHT22;55961;52.156;20.942;2023-04-03T05:25:09;-0.50;68.10
68924;DHT22;55961;52.156;20.942;2023-04-03T05:27:35;-0.50;68.10
68924;DHT22;55961;52.156;20.942;2023-04-03T05:30:02;-0.40;68.10
68924;DHT22;55961;52.156;20.942;2023-04-03T05:32:28;-0.30;67.50
68924;DHT22;55961;52.156;20.942;2023-04-03T05:34:54;-0.30;67.30
68924;DHT22;55961;52.156;20.942;2023-04-03T05:37:20;-0.20;67.60
68924;DHT22;55961;52.156;20.942;2023-04-03T05:39:46;-0.10;67.10
68924;DHT22;55961;52.156;20.942;2023-04-03T05:42:12;-0.10;66.70
68924;DHT22;55961;52.156;20.942;2023-04-03T05:44:39;0.00;66.70
68924;DHT22;55961;52.156;20.942;2023-04-03T05:47:05;0.00;66.40
68924;DHT22;55961;52.156;20.942;2023-04-03T05:49:31;0.10;65.80
68924;DHT22;55961;52.156;20.942;2023-04-03T05:51:57;0.20;66.00
68924;DHT22;55961;52.156;20.942;2023-04-03T05:54:27;0.20;65.60
68924;DHT22;55961;52.156;20.942;2023-04-03T05:56:54;0.30;65.40
68924;DHT22;55961;52.156;20.942;2023-04-03T05:59:20;0.40;64.80
68924;DHT22;55961;52.156;20.942;2023-04-03T06:01:47;0.50;65.10
68924;DHT22;55961;52.156;20.942;2023-04-03T06:04:13;0.50;64.00
68924;DHT22;55961;52.156;20.942;2023-04-03T06:06:51;0.60;63.80
68924;DHT22;55961;52.156;20.942;2023-04-03T06:09:19;0.70;63.60
68924;DHT22;55961;52.156;20.942;2023-04-03T06:11:45;0.80;63.20
68924;DHT22;55961;52.156;20.942;2023-04-03T06:14:11;0.90;63.00
68924;DHT22;55961;52.156;20.942;2023-04-03T06:16:38;0.90;62.80
68924;DHT22;55961;52.156;20.942;2023-04-03T06:19:05;1.00;63.40
68924;DHT22;55961;52.156;20.942;2023-04-03T06:21:32;1.10;62.40
68924;DHT22;55961;52.156;20.942;2023-04-03T06:23:58;1.20;62.20
68924;DHT22;55961;52.156;20.942;2023-04-03T06:26:24;1.30;61.80
68924;DHT22;55961;52.156;20.942;2023-04-03T06:28:50;1.40;62.10
68924;DHT22;55961;52.156;20.942;2023-04-03T06:31:16;1.40;61.90
68924;DHT22;55961;52.156;20.942;2023-04-03T06:33:42;1.50;61.20
68924;DHT22;55961;52.156;20.942;2023-04-03T06:36:10;1.60;60.90
68924;DHT22;55961;52.156;20.942;2023-04-03T06:38:36;1.70;61.00
68924;DHT22;55961;52.156;20.942;2023-04-03T06:41:02;1.80;60.70
68924;DHT22;55961;52.156;20.942;2023-04-03T06:43:28;1.80;60.90
68924;DHT22;55961;52.156;20.942;2023-04-03T06:45:54;1.90;61.20
68924;DHT22;55961;52.156;20.942;2023-04-03T06:48:20;2.00;60.90
68924;DHT22;55961;52.156;20.942;2023-04-03T06:50:46;2.10;59.80
68924;DHT22;55961;52.156;20.942;2023-04-03T06:53:12;2.20;59.50
68924;DHT22;55961;52.156;20.942;2023-04-03T06:55:38;2.30;59.50
68924;DHT22;55961;52.156;20.942;2023-04-03T06:58:04;2.40;59.60
68924;DHT22;55961;52.156;20.942;2023-04-03T07:00:30;2.50;59.60
68924;DHT22;55961;52.156;20.942;2023-04-03T07:02:56;2.50;59.10
68924;DHT22;55961;52.156;20.942;2023-04-03T07:05:24;2.70;59.40
68924;DHT22;55961;52.156;20.942;2023-04-03T07:07:50;2.80;58.40
68924;DHT22;55961;52.156;20.942;2023-04-03T07:10:17;2.90;58.40
68924;DHT22;55961;52.156;20.942;2023-04-03T07:12:43;3.00;58.40
68924;DHT22;55961;52.156;20.942;2023-04-03T07:15:09;3.10;58.60
68924;DHT22;55961;52.156;20.942;2023-04-03T07:17:35;3.20;57.40
68924;DHT22;55961;52.156;20.942;2023-04-03T07:20:03;3.30;57.00
68924;DHT22;55961;52.156;20.942;2023-04-03T07:22:29;3.40;57.10
68924;DHT22;55961;52.156;20.942;2023-04-03T07:24:56;3.50;56.60
68924;DHT22;55961;52.156;20.942;2023-04-03T07:27:21;3.60;56.30
68924;DHT22;55961;52.156;20.942;2023-04-03T07:29:48;3.70;56.30
68924;DHT22;55961;52.156;20.942;2023-04-03T07:32:15;3.80;55.80
68924;DHT22;55961;52.156;20.942;2023-04-03T07:34:41;4.00;55.10
68924;DHT22;55961;52.156;20.942;2023-04-03T07:37:07;4.00;54.70
68924;DHT22;55961;52.156;20.942;2023-04-03T07:39:34;4.10;54.70
68924;DHT22;55961;52.156;20.942;2023-04-03T07:42:01;4.20;54.40
68924;DHT22;55961;52.156;20.942;2023-04-03T07:44:28;4.30;53.20
68924;DHT22;55961;52.156;20.942;2023-04-03T07:46:54;4.40;53.10
68924;DHT22;55961;52.156;20.942;2023-04-03T07:49:23;4.50;53.60
68924;DHT22;55961;52.156;20.942;2023-04-03T07:51:50;4.70;53.90
68924;DHT22;55961;52.156;20.942;2023-04-03T07:54:17;4.80;52.10
68924;DHT22;55961;52.156;20.942;2023-04-03T07:56:42;4.90;51.40
68924;DHT22;55961;52.156;20.942;2023-04-03T07:59:10;5.00;51.70
68924;DHT22;55961;52.156;20.942;2023-04-03T08:01:36;5.10;50.70
68924;DHT22;55961;52.156;20.942;2023-04-03T08:04:03;5.20;49.50
68924;DHT22;55961;52.156;20.942;2023-04-03T08:06:30;5.30;49.80
68924;DHT22;55961;52.156;20.942;2023-04-03T08:08:57;5.40;49.00
68924;DHT22;55961;52.156;20.942;2023-04-03T08:11:24;5.40;48.40
68924;DHT22;55961;52.156;20.942;2023-04-03T08:13:52;5.50;46.80
68924;DHT22;55961;52.156;20.942;2023-04-03T08:16:20;5.60;46.50
68924;DHT22;55961;52.156;20.942;2023-04-03T08:18:48;5.60;47.40
68924;DHT22;55961;52.156;20.942;2023-04-03T08:21:14;5.70;48.60
68924;DHT22;55961;52.156;20.942;2023-04-03T08:23:41;5.80;46.70
68924;DHT22;55961;52.156;20.942;2023-04-03T08:26:09;5.80;45.80
68924;DHT22;55961;52.156;20.942;2023-04-03T08:28:36;5.90;45.70
68924;DHT22;55961;52.156;20.942;2023-04-03T08:31:04;6.00;44.80
68924;DHT22;55961;52.156;20.942;2023-04-03T08:33:32;6.10;44.50
68924;DHT22;55961;52.156;20.942;2023-04-03T08:35:58;6.20;44.70
68924;DHT22;55961;52.156;20.942;2023-04-03T08:38:24;6.30;44.60
68924;DHT22;55961;52.156;20.942;2023-04-03T08:41:29;6.40;44.00
68924;DHT22;55961;52.156;20.942;2023-04-03T08:49:37;6.50;42.60
68924;DHT22;55961;52.156;20.942;2023-04-03T08:52:11;6.60;43.10
68924;DHT22;55961;52.156;20.942;2023-04-03T08:54:56;6.60;43.20
68924;DHT22;55961;52.156;20.942;2023-04-03T08:57:40;6.60;43.80
68924;DHT22;55961;52.156;20.942;2023-04-03T09:00:22;6.60;44.20
68924;DHT22;55961;52.156;20.942;2023-04-03T09:02:53;6.70;43.30
68924;DHT22;55961;52.156;20.942;2023-04-03T09:05:42;6.70;42.90
68924;DHT22;55961;52.156;20.942;2023-04-03T09:08:40;6.80;42.70
68924;DHT22;55961;52.156;20.942;2023-04-03T09:13:57;6.90;41.80
68924;DHT22;55961;52.156;20.942;2023-04-03T09:16:47;7.00;43.40
68924;DHT22;55961;52.156;20.942;2023-04-03T09:22:17;7.30;42.40
68924;DHT22;55961;52.156;20.942;2023-04-03T09:24:47;7.50;42.30
68924;DHT22;55961;52.156;20.942;2023-04-03T09:27:14;7.50;41.20
68924;DHT22;55961;52.156;20.942;2023-04-03T09:29:43;7.50;40.50
68924;DHT22;55961;52.156;20.942;2023-04-03T09:32:29;7.50;40.50
68924;DHT22;55961;52.156;20.942;2023-04-03T09:35:31;7.50;40.60
68924;DHT22;55961;52.156;20.942;2023-04-03T09:37:52;7.50;41.70
68924;DHT22;55961;52.156;20.942;2023-04-03T09:40:41;7.60;40.60
68924;DHT22;55961;52.156;20.942;2023-04-03T09:45:44;7.50;41.00
68924;DHT22;55961;52.156;20.942;2023-04-03T09:51:00;7.60;39.60
68924;DHT22;55961;52.156;20.942;2023-04-03T09:53:39;7.70;39.90
68924;DHT22;55961;52.156;20.942;2023-04-03T09:56:19;7.80;41.10
68924;DHT22;55961;52.156;20.942;2023-04-03T10:01:33;8.00;40.80
68924;DHT22;55961;52.156;20.942;2023-04-03T10:04:08;8.20;40.80
68924;DHT22;55961;52.156;20.942;2023-04-03T10:09:20;8.30;39.00
68924;DHT22;55961;52.156;20.942;2023-04-03T10:12:06;8.30;39.00
68924;DHT22;55961;52.156;20.942;2023-04-03T10:17:29;8.10;38.70
68924;DHT22;55961;52.156;20.942;2023-04-03T10:20:00;8.00;39.20
68924;DHT22;55961;52.156;20.942;2023-04-03T10:28:18;7.90;39.00
68924;DHT22;55961;52.156;20.942;2023-04-03T10:50:58;7.80;39.30
68924;DHT22;55961;52.156;20.942;2023-04-03T10:53:44;7.80;39.00
68924;DHT22;55961;52.156;20.942;2023-04-03T10:56:47;7.80;38.60
68924;DHT22;55961;52.156;20.942;2023-04-03T11:02:07;7.70;38.80
68924;DHT22;55961;52.156;20.942;2023-04-03T11:04:36;7.70;39.30
68924;DHT22;55961;52.156;20.942;2023-04-03T11:07:19;7.70;38.60
68924;DHT22;55961;52.156;20.942;2023-04-03T11:09:52;7.80;37.90
68924;DHT22;55961;52.156;20.942;2023-04-03T11:12:27;7.80;38.60
68924;DHT22;55961;52.156;20.942;2023-04-03T11:14:56;7.90;38.90
68924;DHT22;55961;52.156;20.942;2023-04-03T11:17:37;8.00;39.10
68924;DHT22;55961;52.156;20.942;2023-04-03T11:20:18;8.10;39.20
68924;DHT22;55961;52.156;20.942;2023-04-03T11:22:51;8.30;37.60
68924;DHT22;55961;52.156;20.942;2023-04-03T11:25:23;8.40;38.20
68924;DHT22;55961;52.156;20.942;2023-04-03T11:27:56;8.50;39.40
68924;DHT22;55961;52.156;20.942;2023-04-03T11:33:47;8.90;37.50
68924;DHT22;55961;52.156;20.942;2023-04-03T11:36:30;8.80;36.20
68924;DHT22;55961;52.156;20.942;2023-04-03T11:39:05;8.80;37.10
68924;DHT22;55961;52.156;20.942;2023-04-03T11:41:34;8.80;37.80
68924;DHT22;55961;52.156;20.942;2023-04-03T11:47:11;9.00;37.70
68924;DHT22;55961;52.156;20.942;2023-04-03T12:00:47;9.20;36.60
68924;DHT22;55961;52.156;20.942;2023-04-03T12:29:21;9.50;36.50
68924;DHT22;55961;52.156;20.942;2023-04-03T12:48:24;9.20;37.20
68924;DHT22;55961;52.156;20.942;2023-04-03T12:50:52;9.20;37.20
68924;DHT22;55961;52.156;20.942;2023-04-03T12:53:19;9.20;35.60
68924;DHT22;55961;52.156;20.942;2023-04-03T12:55:47;9.10;36.10
68924;DHT22;55961;52.156;20.942;2023-04-03T12:58:22;9.10;36.70
68924;DHT22;55961;52.156;20.942;2023-04-03T13:01:03;9.20;36.30
68924;DHT22;55961;52.156;20.942;2023-04-03T13:03:35;9.20;36.80
68924;DHT22;55961;52.156;20.942;2023-04-03T13:06:04;9.20;36.80
68924;DHT22;55961;52.156;20.942;2023-04-03T13:08:30;9.10;35.50
68924;DHT22;55961;52.156;20.942;2023-04-03T13:11:16;9.00;35.20
68924;DHT22;55961;52.156;20.942;2023-04-03T13:14:01;9.00;36.30
68924;DHT22;55961;52.156;20.942;2023-04-03T13:16:29;9.00;35.50
68924;DHT22;55961;52.156;20.942;2023-04-03T13:18:55;8.90;35.20
68924;DHT22;55961;52.156;20.942;2023-04-03T13:21:25;8.90;36.30
68924;DHT22;55961;52.156;20.942;2023-04-03T13:23:54;9.00;36.00
68924;DHT22;55961;52.156;20.942;2023-04-03T13:26:23;9.10;36.20
68924;DHT22;55961;52.156;20.942;2023-04-03T13:28:50;9.10;36.10
68924;DHT22;55961;52.156;20.942;2023-04-03T13:31:23;9.20;36.60
68924;DHT22;55961;52.156;20.942;2023-04-03T13:33:53;9.10;36.10
68924;DHT22;55961;52.156;20.942;2023-04-03T13:36:24;9.10;36.40
68924;DHT22;55961;52.156;20.942;2023-04-03T13:38:59;9.00;35.70
68924;DHT22;55961;52.156;20.942;2023-04-03T13:46:51;8.80;36.70
68924;DHT22;55961;52.156;20.942;2023-04-03T13:49:39;8.80;36.60
68924;DHT22;55961;52.156;20.942;2023-04-03T13:52:27;8.80;36.40
68924;DHT22;55961;52.156;20.942;2023-04-03T13:54:57;8.80;37.00
68924;DHT22;55961;52.156;20.942;2023-04-03T13:57:23;8.70;36.60
68924;DHT22;55961;52.156;20.942;2023-04-03T13:59:49;8.70;37.10
68924;DHT22;55961;52.156;20.942;2023-04-03T14:02:30;8.60;37.10
68924;DHT22;55961;52.156;20.942;2023-04-03T14:04:59;8.60;36.60
68924;DHT22;55961;52.156;20.942;2023-04-03T14:07:28;8.50;36.30
68924;DHT22;55961;52.156;20.942;2023-04-03T14:09:55;8.40;36.90
68924;DHT22;55961;52.156;20.942;2023-04-03T14:14:47;8.30;36.90
68924;DHT22;55961;52.156;20.942;2023-04-03T14:17:25;8.30;36.30
68924;DHT22;55961;52.156;20.942;2023-04-03T14:19:52;8.30;36.50
68924;DHT22;55961;52.156;20.942;2023-04-03T14:24:48;8.20;37.30
68924;DHT22;55961;52.156;20.942;2023-04-03T14:27:21;8.10;37.40
68924;DHT22;55961;52.156;20.942;2023-04-03T14:29:48;8.10;37.10
68924;DHT22;55961;52.156;20.942;2023-04-03T14:32:17;8.00;36.70
68924;DHT22;55961;52.156;20.942;2023-04-03T14:34:44;7.90;37.00
68924;DHT22;55961;52.156;20.942;2023-04-03T14:37:13;7.90;37.50
68924;DHT22;55961;52.156;20.942;2023-04-03T14:39:40;7.90;37.30
68924;DHT22;55961;52.156;20.942;2023-04-03T14:42:09;7.80;37.00
68924;DHT22;55961;52.156;20.942;2023-04-03T14:44:35;7.70;37.20
68924;DHT22;55961;52.156;20.942;2023-04-03T14:47:01;7.70;37.70
68924;DHT22;55961;52.156;20.942;2023-04-03T14:49:47;7.70;37.70
68924;DHT22;55961;52.156;20.942;2023-04-03T14:52:28;7.70;37.70
68924;DHT22;55961;52.156;20.942;2023-04-03T14:54:56;7.60;36.90
68924;DHT22;55961;52.156;20.942;2023-04-03T14:57:25;7.50;37.20
68924;DHT22;55961;52.156;20.942;2023-04-03T14:59:51;7.50;37.50
68924;DHT22;55961;52.156;20.942;2023-04-03T15:02:33;7.50;38.30
68924;DHT22;55961;52.156;20.942;2023-04-03T15:05:00;7.40;38.20
68924;DHT22;55961;52.156;20.942;2023-04-03T15:07:31;7.40;38.30
68924;DHT22;55961;52.156;20.942;2023-04-03T15:10:02;7.30;38.40
68924;DHT22;55961;52.156;20.942;2023-04-03T15:12:29;7.30;37.70
68924;DHT22;55961;52.156;20.942;2023-04-03T15:14:55;7.20;38.40
68924;DHT22;55961;52.156;20.942;2023-04-03T15:17:22;7.20;39.10
68924;DHT22;55961;52.156;20.942;2023-04-03T15:19:48;7.10;39.40
68924;DHT22;55961;52.156;20.942;2023-04-03T15:22:16;7.10;39.50
68924;DHT22;55961;52.156;20.942;2023-04-03T15:24:43;7.00;39.80
68924;DHT22;55961;52.156;20.942;2023-04-03T15:27:09;7.00;40.20
68924;DHT22;55961;52.156;20.942;2023-04-03T15:29:36;7.00;40.50
68924;DHT22;55961;52.156;20.942;2023-04-03T15:32:03;7.00;40.40
68924;DHT22;55961;52.156;20.942;2023-04-03T15:34:29;7.00;39.60
68924;DHT22;55961;52.156;20.942;2023-04-03T15:36:55;6.90;39.20
68924;DHT22;55961;52.156;20.942;2023-04-03T15:39:21;6.90;39.30
68924;DHT22;55961;52.156;20.942;2023-04-03T15:41:49;6.90;40.10
68924;DHT22;55961;52.156;20.942;2023-04-03T15:44:14;6.80;39.60
68924;DHT22;55961;52.156;20.942;2023-04-03T15:46:44;6.80;40.30
68924;DHT22;55961;52.156;20.942;2023-04-03T15:49:10;6.70;39.90
68924;DHT22;55961;52.156;20.942;2023-04-03T15:51:36;6.70;40.70
68924;DHT22;55961;52.156;20.942;2023-04-03T15:54:02;6.60;41.10
68924;DHT22;55961;52.156;20.942;2023-04-03T15:56:28;6.60;41.40
68924;DHT22;55961;52.156;20.942;2023-04-03T15:58:54;6.60;41.30
68924;DHT22;55961;52.156;20.942;2023-04-03T16:01:21;6.50;40.80
68924;DHT22;55961;52.156;20.942;2023-04-03T16:03:47;6.50;40.80
68924;DHT22;55961;52.156;20.942;2023-04-03T16:06:15;6.40;40.60
68924;DHT22;55961;52.156;20.942;2023-04-03T16:08:41;6.40;40.90
68924;DHT22;55961;52.156;20.942;2023-04-03T16:11:08;6.40;40.90
68924;DHT22;55961;52.156;20.942;2023-04-03T16:13:34;6.30;41.00
68924;DHT22;55961;52.156;20.942;2023-04-03T16:16:01;6.30;41.40
68924;DHT22;55961;52.156;20.942;2023-04-03T16:18:28;6.30;41.30
68924;DHT22;55961;52.156;20.942;2023-04-03T16:20:55;6.30;41.70
68924;DHT22;55961;52.156;20.942;2023-04-03T16:23:21;6.20;41.90
68924;DHT22;55961;52.156;20.942;2023-04-03T16:25:48;6.20;40.80
68924;DHT22;55961;52.156;20.942;2023-04-03T16:28:17;6.10;40.30
68924;DHT22;55961;52.156;20.942;2023-04-03T16:30:44;6.10;40.80
68924;DHT22;55961;52.156;20.942;2023-04-03T16:33:12;6.00;40.80
68924;DHT22;55961;52.156;20.942;2023-04-03T16:35:39;6.00;41.10
68924;DHT22;55961;52.156;20.942;2023-04-03T16:38:07;6.00;41.10
68924;DHT22;55961;52.156;20.942;2023-04-03T16:40:33;5.90;41.50
68924;DHT22;55961;52.156;20.942;2023-04-03T16:43:01;5.90;41.50
68924;DHT22;55961;52.156;20.942;2023-04-03T16:45:27;5.90;41.40
68924;DHT22;55961;52.156;20.942;2023-04-03T16:47:53;5.80;42.00
68924;DHT22;55961;52.156;20.942;2023-04-03T16:50:19;5.80;42.20
68924;DHT22;55961;52.156;20.942;2023-04-03T16:52:46;5.80;42.30
68924;DHT22;55961;52.156;20.942;2023-04-03T16:55:12;5.70;42.10
68924;DHT22;55961;52.156;20.942;2023-04-03T16:57:38;5.70;41.50
68924;DHT22;55961;52.156;20.942;2023-04-03T17:00:05;5.60;41.30
68924;DHT22;55961;52.156;20.942;2023-04-03T17:02:31;5.60;41.50
68924;DHT22;55961;52.156;20.942;2023-04-03T17:04:57;5.60;41.60
68924;DHT22;55961;52.156;20.942;2023-04-03T17:07:24;5.50;42.20
68924;DHT22;55961;52.156;20.942;2023-04-03T17:09:52;5.50;42.40
68924;DHT22;55961;52.156;20.942;2023-04-03T17:12:19;5.40;42.50
68924;DHT22;55961;52.156;20.942;2023-04-03T17:14:48;5.40;42.60
68924;DHT22;55961;52.156;20.942;2023-04-03T17:17:15;5.30;43.00
68924;DHT22;55961;52.156;20.942;2023-04-03T17:19:45;5.30;42.70
68924;DHT22;55961;52.156;20.942;2023-04-03T17:22:11;5.30;42.30
68924;DHT22;55961;52.156;20.942;2023-04-03T17:24:37;5.20;42.70
68924;DHT22;55961;52.156;20.942;2023-04-03T17:27:03;5.20;43.10
68924;DHT22;55961;52.156;20.942;2023-04-03T17:29:30;5.10;43.30
68924;DHT22;55961;52.156;20.942;2023-04-03T17:31:56;5.10;43.20
68924;DHT22;55961;52.156;20.942;2023-04-03T17:34:22;5.10;42.90
68924;DHT22;55961;52.156;20.942;2023-04-03T17:36:48;5.10;44.00
68924;DHT22;55961;52.156;20.942;2023-04-03T17:39:14;5.00;44.10
68924;DHT22;55961;52.156;20.942;2023-04-03T17:41:41;5.00;44.10
68924;DHT22;55961;52.156;20.942;2023-04-03T17:44:07;5.00;44.50
68924;DHT22;55961;52.156;20.942;2023-04-03T17:46:33;4.90;44.10
68924;DHT22;55961;52.156;20.942;2023-04-03T17:48:59;4.90;44.10
68924;DHT22;55961;52.156;20.942;2023-04-03T17:51:30;4.90;44.00